Terminal Aerodrome Forecast
Issued by NWS

Current Version | Previous Version | Text Only | Print | Product List | Glossary Off
Versions: 1 2 3 4 5 6 7 8 9 10 11 12 13 14 15 16 17

507
FTUS41 KILN 212331
TAFLUK
TAF
KLUK 212331Z 2200/2224 30007KT P6SM SCT060
     FM220100 VRB03KT P6SM SCT250
      TEMPO 2208/2212 4SM BR
     FM221400 31004KT P6SM SCT040=

USA.gov is the U.S. government's official web portal to all federal, state and local government web resources and services.